Key West, FL (33040)

10:39 PM EDT on August 04, 2015 (GMT -0400)
Big Coppitt Key Gulfside | | Change Station
CLOSE
Current Station
Personal Weather Station
Location: Key West, FL
Elevation: 31 ft
Nearby Weather Stations

Elev 31 ft 24.60 °N, 81.67 °W | Updated 11 minutes ago

Partly Cloudy
Partly Cloudy
84.2 °F
Feels Like 94 °F
N
1.7
Wind Variable Wind from ESE

Today
High -- | Low -- °F
--% Chance of Precip.
Yesterday
High -- | Low -- °F
Precip. -- in
6:56 AM 8:08 PM
Waning Gibbous, 72% visible
Pressure 30.08 in
Visibility 10.0 miles
Clouds Few 3000 ft
Scattered Clouds 25000 ft
Heat Index 94 °F
Dew Point 77 °F
Humidity 78%
Rainfall 0.00 in
Snow Depth Not available.
UV 0 out of 12
Pollen 3.80 out of 12
Air Quality Not available.
Flu Activity Not available.
METAR KNQX 050153Z 15009KT 10SM FEW030 SCT250 29/24 A3008 RMK AO2 SLP184 T02890239 $

More Conditions Fewer Conditions

Pressure 30.08 in
Visibility 10.0 miles
Clouds Few 3000 ft
Scattered Clouds 25000 ft
Heat Index 94 °F
Dew Point 77 °F
Humidity 78%
Rainfall 0.00 in
Snow Depth Not available.
UV 0 out of 12
Pollen 3.80 out of 12
Air Quality Not available.
Flu Activity Not available.
METAR KNQX 050153Z 15009KT 10SM FEW030 SCT250 29/24 A3008 RMK AO2 SLP184 T02890239 $

More Conditions Fewer Conditions

Nowcast | as of 9:55 PM EDT on August 4, 2015

Isolated showers with embedded thunderstorms will head west northwest across the Florida Straits and Gulf waters surrounding the middle and Lower Keys through 1100 PM. Strongest activity will produce moderate rain...wind gusts up to 25 knots...and occasional lightning strikes while reducing visibilities to 4 nm or less. Island locations from Key West to Cudjoe Key may see a brief period of light to moderate rain with up to one tenth of an inch of rainfall.

×

10-Day Weather Forecast

×

Almanac

Astronomy

Aug. 04, 2015 Rise Set
Actual Time
Civil Twilight
Nautical Twilight
Astronomical Twilight
Moon
Length of Visible Light
Length of Day
Tomorrow will be .
, % of the Moon is Illuminated

Today's Extremes

State Highs State Lows

Community

WunderPhotos

Upload Photos

1,844,087 photos uploaded!

WunderBlogs® & News

Nearby

Air Quality

  Air Quality AQ Index Pollutant
Not available.

Snow Depth

Station Depth Elevation

Earthquake Activity

City Distance Mag. Time & Date
Minimum magnitude displayed is 2.5.

Coastal Water Temperatures

Place Temperature

Stations

Nearby Weather Stations

Station Location Temp. Windchill Dew Point Humidity Wind Precip. Elev Updated Type